Time;durP1;ratioP1;P1;durP2;ratioP2;P2;SDS_P1;SDS_P2;PMS_P1;PMS_P2;Temp;Humidity;BMP_temperature;BMP_pressure;BME280_temperature;BME280_humidity;BME280_pressure;Samples;Min_cycle;Max_cycle;Signal;HPM_P1;HPM_P2
2023/09/10 00:00:25;;;;;;;34.70;33.23;;;27.60;95.90;;;;;;5051074;28;20488;-58
2023/09/10 00:02:51;;;;;;;34.90;33.50;;;27.60;95.90;;;;;;5050850;28;20447;-56
2023/09/10 00:05:18;;;;;;;35.10;33.63;;;27.60;95.90;;;;;;5051100;28;20472;-56
2023/09/10 00:07:47;;;;;;;34.47;32.97;;;27.60;95.90;;;;;;5050816;28;20507;-57
2023/09/10 00:10:13;;;;;;;35.40;33.80;;;27.60;95.90;;;;;;5050904;28;20503;-51
2023/09/10 00:12:41;;;;;;;33.80;32.30;;;27.60;95.90;;;;;;5050639;28;20475;-51
2023/09/10 00:15:09;;;;;;;34.70;33.20;;;27.60;95.90;;;;;;5050964;28;20476;-51
2023/09/10 00:17:36;;;;;;;33.40;31.90;;;27.60;95.90;;;;;;5050794;28;20947;-52
2023/09/10 00:20:05;;;;;;;33.60;32.10;;;27.50;95.90;;;;;;5050724;28;20495;-50
2023/09/10 00:22:32;;;;;;;33.10;31.70;;;27.50;95.90;;;;;;5050493;28;20455;-53
2023/09/10 00:25:00;;;;;;;34.00;32.50;;;27.60;95.90;;;;;;5051071;28;20472;-57
2023/09/10 00:27:27;;;;;;;34.47;32.97;;;27.50;95.80;;;;;;5050954;28;20464;-53
2023/09/10 00:29:54;;;;;;;33.53;32.13;;;27.50;95.80;;;;;;5050660;28;20488;-56
2023/09/10 00:32:21;;;;;;;34.10;32.60;;;27.50;95.90;;;;;;5050614;28;20483;-55
2023/09/10 00:34:48;;;;;;;34.73;33.13;;;27.50;95.80;;;;;;5050766;28;20452;-57
2023/09/10 00:37:16;;;;;;;36.10;34.50;;;27.50;95.90;;;;;;5050690;28;20468;-55
2023/09/10 00:39:43;;;;;;;35.00;33.40;;;27.50;95.80;;;;;;5050767;28;20458;-57
2023/09/10 00:42:11;;;;;;;33.50;32.00;;;27.50;95.80;;;;;;5050552;28;20464;-56
2023/09/10 00:44:38;;;;;;;34.73;33.23;;;27.50;95.80;;;;;;5050668;28;20468;-53
2023/09/10 00:47:06;;;;;;;33.40;32.00;;;27.50;95.80;;;;;;5050737;28;20448;-50
2023/09/10 00:49:33;;;;;;;33.23;31.83;;;27.50;95.80;;;;;;5050373;28;20479;-58
2023/09/10 00:52:02;;;;;;;38.93;37.03;;;27.50;95.80;;;;;;5050448;28;20845;-57
2023/09/10 00:54:31;;;;;;;35.80;34.20;;;27.50;95.80;;;;;;5050816;28;20959;-58
2023/09/10 00:57:00;;;;;;;35.03;33.53;;;27.50;95.80;;;;;;5042458;28;20486;-52
2023/09/10 00:59:29;;;;;;;35.50;33.90;;;27.50;95.80;;;;;;5050469;28;20467;-54
2023/09/10 01:01:56;;;;;;;34.50;33.10;;;27.50;95.80;;;;;;5050271;28;20436;-51
2023/09/10 01:04:24;;;;;;;34.60;33.10;;;27.50;95.80;;;;;;5050653;28;20472;-51
2023/09/10 01:06:52;;;;;;;33.83;32.33;;;27.50;95.80;;;;;;5052541;28;20517;-51
2023/09/10 01:09:19;;;;;;;34.40;32.90;;;27.50;95.80;;;;;;5054181;28;20486;-52
2023/09/10 01:11:57;;;;;;;33.87;32.37;;;27.50;95.80;;;;;;5053852;28;20502;-51
2023/09/10 01:14:32;;;;;;;34.80;33.20;;;27.50;95.80;;;;;;5054122;28;20854;-51
2023/09/10 01:17:05;;;;;;;35.50;33.90;;;27.50;95.80;;;;;;5045931;28;20440;-53
2023/09/10 01:20:15;;;;;;;34.97;33.37;;;27.50;95.80;;;;;;5053777;28;20999;-56
2023/09/10 01:22:52;;;;;;;37.33;35.67;;;27.50;95.80;;;;;;5051344;28;20460;-55
2023/09/10 01:25:21;;;;;;;34.27;32.80;;;27.50;95.80;;;;;;5053780;28;20459;-57
2023/09/10 01:27:48;;;;;;;33.93;32.43;;;27.50;95.80;;;;;;5053576;28;20873;-57
2023/09/10 01:30:15;;;;;;;36.33;34.60;;;27.50;95.80;;;;;;5053567;28;20492;-56
2023/09/10 01:32:46;;;;;;;37.17;35.57;;;27.50;95.90;;;;;;5053348;28;20479;-50
2023/09/10 01:35:20;;;;;;;36.23;34.67;;;27.50;95.80;;;;;;5053579;28;20472;-53
2023/09/10 01:37:54;;;;;;;35.53;34.03;;;27.40;95.80;;;;;;5053623;28;20484;-53
2023/09/10 01:40:29;;;;;;;35.07;33.57;;;27.50;96.10;;;;;;5053423;28;20515;-50
2023/09/10 01:42:55;;;;;;;37.37;35.77;;;27.40;95.80;;;;;;5053240;28;20479;-50
2023/09/10 01:45:24;;;;;;;35.33;33.73;;;27.40;95.80;;;;;;5053403;28;20468;-51
2023/09/10 01:47:51;;;;;;;35.70;34.20;;;27.40;95.80;;;;;;5053240;28;20483;-49
2023/09/10 01:50:18;;;;;;;34.97;33.47;;;27.40;95.80;;;;;;5053289;28;20498;-50
2023/09/10 01:52:45;;;;;;;35.27;33.67;;;27.40;95.70;;;;;;5053044;28;20847;-51
2023/09/10 01:55:12;;;;;;;34.80;33.10;;;27.40;95.80;;;;;;5053177;28;20559;-50
2023/09/10 01:57:40;;;;;;;34.80;33.20;;;27.40;95.80;;;;;;5053170;28;20479;-51
2023/09/10 02:00:09;;;;;;;34.53;33.13;;;27.40;95.80;;;;;;5053008;28;21018;-51
2023/09/10 02:02:36;;;;;;;37.17;35.50;;;27.40;95.80;;;;;;5052866;28;20444;-51
2023/09/10 02:05:03;;;;;;;35.97;34.37;;;27.40;95.80;;;;;;5052994;28;20972;-51
2023/09/10 02:07:30;;;;;;;36.70;35.10;;;27.40;95.70;;;;;;5052958;28;20515;-51
2023/09/10 02:09:58;;;;;;;35.27;33.77;;;27.40;95.70;;;;;;5052669;28;20575;-50
2023/09/10 02:12:25;;;;;;;34.90;33.40;;;27.40;95.80;;;;;;5052695;28;20527;-50
2023/09/10 02:14:53;;;;;;;36.43;34.77;;;27.40;95.70;;;;;;5052774;28;20476;-52
2023/09/10 02:17:20;;;;;;;36.77;35.17;;;27.40;95.80;;;;;;5052007;28;20476;-51
2023/09/10 02:19:47;;;;;;;36.67;35.13;;;27.40;95.80;;;;;;5093462;22;20524;-57
2023/09/10 02:22:15;;;;;;;37.03;35.33;;;27.40;95.70;;;;;;5052704;28;20929;-55
2023/09/10 02:24:42;;;;;;;35.67;34.07;;;27.40;95.70;;;;;;5052928;28;20447;-57
2023/09/10 02:27:08;;;;;;;34.30;32.90;;;27.40;95.80;;;;;;5052722;28;20463;-57
2023/09/10 02:29:35;;;;;;;35.10;33.60;;;27.40;95.70;;;;;;5052703;28;20515;-56
2023/09/10 02:32:04;;;;;;;36.47;34.80;;;27.40;95.70;;;;;;5044372;28;20493;-56
2023/09/10 02:34:31;;;;;;;34.83;33.23;;;27.40;95.70;;;;;;5052507;28;20468;-53
2023/09/10 02:36:59;;;;;;;35.30;33.73;;;27.40;95.70;;;;;;5052283;28;20472;-50
2023/09/10 02:39:26;;;;;;;35.70;34.20;;;27.40;95.80;;;;;;5052221;28;20460;-53
2023/09/10 02:41:53;;;;;;;35.30;33.80;;;27.40;95.70;;;;;;5052044;28;21005;-53
2023/09/10 02:44:20;;;;;;;34.90;33.40;;;27.40;95.70;;;;;;5052295;28;20872;-50
2023/09/10 02:46:47;;;;;;;35.47;33.97;;;27.30;95.70;;;;;;5052153;28;20476;-50
2023/09/10 02:49:17;;;;;;;37.47;35.77;;;27.30;95.70;;;;;;5051961;28;20483;-55
2023/09/10 02:51:44;;;;;;;36.50;34.90;;;27.30;95.70;;;;;;5051931;28;20480;-53
2023/09/10 02:54:11;;;;;;;35.50;33.90;;;27.40;95.70;;;;;;5052094;28;20472;-50
2023/09/10 02:56:38;;;;;;;36.83;35.23;;;27.30;95.70;;;;;;5051893;28;20955;-53
2023/09/10 02:59:05;;;;;;;36.27;34.60;;;27.30;95.70;;;;;;5051856;28;20998;-53
2023/09/10 03:01:31;;;;;;;35.70;34.17;;;27.30;95.70;;;;;;5051907;28;20471;-51
2023/09/10 03:03:58;;;;;;;36.37;34.77;;;27.30;95.70;;;;;;5051671;28;20468;-54
2023/09/10 03:06:27;;;;;;;36.80;35.10;;;27.30;95.70;;;;;;5051837;28;20475;-56
2023/09/10 03:08:53;;;;;;;35.43;33.83;;;27.30;95.70;;;;;;5051607;28;20511;-54
2023/09/10 03:11:20;;;;;;;34.67;33.17;;;27.30;95.70;;;;;;5051780;28;20477;-50
2023/09/10 03:13:47;;;;;;;37.77;36.17;;;27.30;95.60;;;;;;5051498;28;20447;-50
2023/09/10 03:16:14;;;;;;;35.80;34.20;;;27.30;95.70;;;;;;5051663;28;20475;-52
2023/09/10 03:18:41;;;;;;;37.00;35.40;;;27.30;95.60;;;;;;5051222;28;20436;-54
2023/09/10 03:21:08;;;;;;;36.77;35.17;;;27.30;95.60;;;;;;5051609;28;20479;-53
2023/09/10 03:23:36;;;;;;;35.17;33.57;;;27.30;95.60;;;;;;5051352;28;20476;-50
2023/09/10 03:26:03;;;;;;;38.40;36.70;;;27.30;95.60;;;;;;5043251;28;20472;-53
2023/09/10 03:28:30;;;;;;;36.77;35.07;;;27.30;95.60;;;;;;5051347;28;22374;-53
2023/09/10 03:30:57;;;;;;;39.93;38.33;;;27.30;95.70;;;;;;5051281;28;20499;-52
2023/09/10 03:33:24;;;;;;;35.13;33.53;;;27.30;95.60;;;;;;5051073;28;20472;-54
2023/09/10 03:35:51;;;;;;;36.10;34.50;;;27.30;95.60;;;;;;5051193;28;20482;-54
2023/09/10 03:38:18;;;;;;;38.80;37.00;;;27.30;95.60;;;;;;5051470;28;20470;-51
2023/09/10 03:40:46;;;;;;;36.57;34.97;;;27.30;95.60;;;;;;5051069;28;20491;-57
2023/09/10 03:43:13;;;;;;;34.90;33.30;;;27.30;95.60;;;;;;5051226;28;20778;-51
2023/09/10 03:45:40;;;;;;;35.80;34.10;;;27.30;95.60;;;;;;5051094;28;20472;-50
2023/09/10 03:48:07;;;;;;;34.73;33.20;;;27.20;95.60;;;;;;5051117;28;20479;-53
2023/09/10 03:50:35;;;;;;;36.80;35.20;;;27.20;95.60;;;;;;5050956;28;20511;-55
2023/09/10 03:53:02;;;;;;;34.30;32.80;;;27.20;95.60;;;;;;5050798;28;20472;-53
2023/09/10 03:55:28;;;;;;;37.33;35.63;;;27.20;95.60;;;;;;5051132;28;20440;-52
2023/09/10 03:57:57;;;;;;;34.50;32.90;;;27.20;95.50;;;;;;5051161;28;21101;-53
2023/09/10 04:00:24;;;;;;;37.63;36.03;;;27.20;95.60;;;;;;5050899;28;20515;-55
2023/09/10 04:02:50;;;;;;;39.30;37.57;;;27.20;95.60;;;;;;5050688;28;20472;-54
2023/09/10 04:05:18;;;;;;;38.07;36.43;;;27.20;95.50;;;;;;5051062;28;20628;-50
2023/09/10 04:07:45;;;;;;;39.37;37.67;;;27.20;95.60;;;;;;5050881;28;20821;-53
2023/09/10 04:10:12;;;;;;;41.30;39.50;;;27.20;95.50;;;;;;5050965;28;20912;-55
2023/09/10 04:12:39;;;;;;;38.87;37.17;;;27.20;95.60;;;;;;5050932;28;20498;-51
2023/09/10 04:15:08;;;;;;;41.10;39.30;;;27.20;95.60;;;;;;5042910;28;20472;-53
2023/09/10 04:17:35;;;;;;;39.57;37.87;;;27.20;95.50;;;;;;5050965;28;20474;-52
2023/09/10 04:20:07;;;;;;;38.87;37.10;;;27.20;95.50;;;;;;5050526;28;20487;-53
2023/09/10 04:22:34;;;;;;;39.93;38.23;;;27.20;95.50;;;;;;5050691;28;20513;-53
2023/09/10 04:25:01;;;;;;;39.40;37.50;;;27.20;95.90;;;;;;5050781;28;20487;-56
2023/09/10 04:27:28;;;;;;;38.90;37.20;;;27.10;95.50;;;;;;5050842;28;20480;-57
2023/09/10 04:29:56;;;;;;;39.33;37.63;;;27.20;95.50;;;;;;5050564;28;20518;-53
2023/09/10 04:32:24;;;;;;;39.30;37.60;;;27.10;95.50;;;;;;5050511;28;20440;-50
2023/09/10 04:34:51;;;;;;;40.70;38.90;;;27.20;95.50;;;;;;5050952;28;20498;-53
2023/09/10 04:37:18;;;;;;;39.30;37.60;;;27.10;95.50;;;;;;5050858;28;20929;-55
2023/09/10 04:39:45;;;;;;;40.27;38.57;;;27.10;95.40;;;;;;5050541;28;20578;-51
2023/09/10 04:42:12;;;;;;;41.47;39.67;;;27.10;95.40;;;;;;5053384;28;20468;-56
2023/09/10 04:44:39;;;;;;;40.40;38.70;;;27.10;95.40;;;;;;5054520;28;20440;-54
2023/09/10 04:47:06;;;;;;;40.73;38.90;;;27.10;95.40;;;;;;5046196;28;20840;-54
2023/09/10 04:49:34;;;;;;;39.17;37.37;;;27.10;95.40;;;;;;5054553;28;20518;-57
2023/09/10 04:52:01;;;;;;;39.80;38.10;;;27.10;95.40;;;;;;5054079;28;20472;-54
2023/09/10 04:54:28;;;;;;;40.90;39.10;;;27.10;95.40;;;;;;5054334;28;20506;-55
2023/09/10 04:56:55;;;;;;;39.37;37.67;;;27.20;95.50;;;;;;5054069;28;20490;-57
2023/09/10 04:59:22;;;;;;;39.50;37.80;;;27.10;95.40;;;;;;5054159;28;20495;-57
2023/09/10 05:01:49;;;;;;;38.47;36.77;;;27.10;95.40;;;;;;5053836;28;21166;-52
2023/09/10 05:04:16;;;;;;;43.63;41.83;;;27.20;95.40;;;;;;5054226;28;20843;-51
2023/09/10 05:06:44;;;;;;;41.27;39.53;;;27.10;95.40;;;;;;5054072;28;20467;-53
2023/09/10 05:09:11;;;;;;;43.63;41.80;;;27.10;95.40;;;;;;5053928;28;20522;-57
2023/09/10 05:11:38;;;;;;;43.70;41.90;;;27.10;95.40;;;;;;5053829;28;20471;-55
2023/09/10 05:14:05;;;;;;;40.40;38.60;;;27.10;95.40;;;;;;5053882;28;20475;-53
2023/09/10 05:16:31;;;;;;;39.33;37.63;;;27.10;95.40;;;;;;5053974;28;20479;-56
2023/09/10 05:18:58;;;;;;;40.37;38.60;;;27.10;95.40;;;;;;5053484;28;20503;-56
2023/09/10 05:21:25;;;;;;;39.57;37.77;;;27.10;95.40;;;;;;5053693;28;20475;-57
2023/09/10 05:23:53;;;;;;;41.67;39.77;;;27.10;95.40;;;;;;5053694;28;20472;-57
2023/09/10 05:26:22;;;;;;;40.80;38.90;;;27.10;95.40;;;;;;5053734;28;20804;-54
2023/09/10 05:28:48;;;;;;;40.30;38.40;;;27.10;95.40;;;;;;5053392;28;20447;-53
2023/09/10 05:31:15;;;;;;;40.07;38.27;;;27.10;95.40;;;;;;5053878;28;20479;-57
2023/09/10 05:33:42;;;;;;;39.10;37.40;;;27.10;95.40;;;;;;5053563;28;20555;-56
2023/09/10 05:36:09;;;;;;;43.20;41.20;;;27.10;95.40;;;;;;5045548;28;20475;-50
2023/09/10 05:38:36;;;;;;;41.03;39.23;;;27.10;95.40;;;;;;5053384;28;20471;-55
2023/09/10 05:41:05;;;;;;;41.40;39.50;;;27.10;95.30;;;;;;5053390;28;20471;-57
2023/09/10 05:43:32;;;;;;;41.10;39.30;;;27.10;95.30;;;;;;5053158;28;20812;-55
2023/09/10 05:45:59;;;;;;;38.50;36.70;;;27.10;95.40;;;;;;5053261;28;20472;-53
2023/09/10 05:48:26;;;;;;;42.70;40.70;;;27.10;95.40;;;;;;5053294;28;20471;-53
2023/09/10 05:50:56;;;;;;;41.10;39.20;;;27.10;95.40;;;;;;5053014;28;20559;-51
2023/09/10 05:53:23;;;;;;;40.10;38.30;;;27.10;95.40;;;;;;5053063;28;20532;-53
2023/09/10 05:55:50;;;;;;;39.30;37.50;;;27.10;95.40;;;;;;5053021;28;20475;-56
2023/09/10 05:58:19;;;;;;;37.73;36.13;;;27.00;95.30;;;;;;5053073;28;20471;-52
2023/09/10 06:00:46;;;;;;;40.57;38.67;;;27.00;95.30;;;;;;5052903;28;20463;-56
2023/09/10 06:03:13;;;;;;;40.40;38.60;;;27.00;95.30;;;;;;5052852;28;20468;-55
2023/09/10 06:05:40;;;;;;;41.77;39.97;;;27.00;95.60;;;;;;5053025;28;20557;-51
2023/09/10 06:08:07;;;;;;;44.33;42.23;;;27.00;95.30;;;;;;5052818;28;20472;-55
2023/09/10 06:10:34;;;;;;;41.00;39.20;;;27.00;95.30;;;;;;5052759;28;20566;-55
2023/09/10 06:13:01;;;;;;;42.57;40.63;;;27.00;95.30;;;;;;5052898;28;20472;-55
2023/09/10 06:15:29;;;;;;;42.57;40.77;;;27.00;95.30;;;;;;5052878;28;20440;-51
2023/09/10 06:17:56;;;;;;;44.20;42.30;;;27.10;95.30;;;;;;5052842;28;20545;-54
2023/09/10 06:20:23;;;;;;;44.70;42.83;;;27.00;95.30;;;;;;5052706;28;20514;-56
2023/09/10 06:22:50;;;;;;;42.93;41.07;;;27.00;95.30;;;;;;5052361;28;20482;-57
2023/09/10 06:25:17;;;;;;;43.30;41.40;;;27.00;95.30;;;;;;5052640;28;20445;-52
2023/09/10 06:27:44;;;;;;;43.20;41.20;;;27.00;95.30;;;;;;5052767;28;20476;-56
2023/09/10 06:30:12;;;;;;;41.43;39.57;;;27.00;95.30;;;;;;5044410;28;20990;-55
2023/09/10 06:32:40;;;;;;;41.87;40.07;;;27.00;95.30;;;;;;5052331;28;20472;-53
2023/09/10 06:35:08;;;;;;;43.60;41.50;;;27.00;95.30;;;;;;5052478;28;20468;-53
2023/09/10 06:37:35;;;;;;;42.53;40.63;;;27.00;95.30;;;;;;5052432;28;20475;-55
2023/09/10 06:40:03;;;;;;;41.03;39.23;;;27.00;95.30;;;;;;5052311;28;20468;-57
2023/09/10 06:42:30;;;;;;;43.67;41.77;;;27.00;95.30;;;;;;5052155;28;20440;-54
2023/09/10 06:44:57;;;;;;;42.80;40.90;;;27.00;95.30;;;;;;5052364;28;20862;-56
2023/09/10 06:47:23;;;;;;;44.17;42.27;;;27.00;95.30;;;;;;5052321;28;20499;-54
2023/09/10 06:49:52;;;;;;;44.70;42.70;;;27.00;95.30;;;;;;5051802;28;20515;-56
2023/09/10 06:52:19;;;;;;;43.47;41.57;;;27.00;95.30;;;;;;5051959;28;20856;-54
2023/09/10 06:54:45;;;;;;;42.97;41.10;;;27.00;95.30;;;;;;5052086;28;20475;-57
2023/09/10 06:57:13;;;;;;;43.63;41.63;;;27.00;95.30;;;;;;5052264;28;20474;-54
2023/09/10 06:59:40;;;;;;;43.87;41.90;;;27.00;95.30;;;;;;5051894;28;20903;-55
2023/09/10 07:02:07;;;;;;;43.37;41.47;;;27.00;95.30;;;;;;5051547;28;20479;-54
2023/09/10 07:04:34;;;;;;;42.80;40.90;;;27.00;95.30;;;;;;5051389;28;20475;-53
2023/09/10 07:07:02;;;;;;;42.60;40.80;;;27.00;95.30;;;;;;5051677;28;20868;-52
2023/09/10 07:09:29;;;;;;;44.77;42.80;;;27.00;95.30;;;;;;5051554;28;20821;-55
2023/09/10 07:11:56;;;;;;;42.33;40.53;;;27.00;95.30;;;;;;5051630;28;20873;-51
2023/09/10 07:14:23;;;;;;;43.70;41.80;;;27.00;95.30;;;;;;5051669;28;20849;-50
2023/09/10 07:16:50;;;;;;;45.40;43.50;;;27.00;95.30;;;;;;5051576;28;20476;-53
2023/09/10 07:19:17;;;;;;;45.93;44.03;;;27.00;95.30;;;;;;5051433;28;20518;-52
2023/09/10 07:21:44;;;;;;;45.43;43.53;;;27.00;95.30;;;;;;5051407;28;20479;-54
2023/09/10 07:24:12;;;;;;;45.23;43.33;;;27.00;95.30;;;;;;5051567;28;20439;-51
2023/09/10 07:26:39;;;;;;;45.07;43.17;;;27.00;95.30;;;;;;5051697;28;20479;-53
2023/09/10 07:29:06;;;;;;;46.47;44.47;;;27.00;95.30;;;;;;5051276;28;20674;-53
2023/09/10 07:31:34;;;;;;;46.47;44.57;;;27.00;95.30;;;;;;5051126;28;20504;-51
2023/09/10 07:34:01;;;;;;;44.80;43.00;;;27.00;95.30;;;;;;5051438;28;20468;-52
2023/09/10 07:36:28;;;;;;;48.10;46.10;;;26.90;95.20;;;;;;5051419;28;20472;-57
2023/09/10 07:38:55;;;;;;;45.80;43.90;;;26.90;95.30;;;;;;5051213;28;20496;-52
2023/09/10 07:41:23;;;;;;;45.03;43.00;;;26.90;95.30;;;;;;5051471;28;20447;-52
2023/09/10 07:43:50;;;;;;;44.40;42.60;;;26.90;95.30;;;;;;5051088;28;20948;-55
2023/09/10 07:46:17;;;;;;;46.00;43.90;;;27.00;95.30;;;;;;5050472;28;20866;-56
2023/09/10 07:48:45;;;;;;;49.50;47.13;;;26.90;96.40;;;;;;5051171;28;20440;-56
2023/09/10 07:51:12;;;;;;;50.63;47.97;;;26.90;96.40;;;;;;5051037;28;20508;-56
2023/09/10 07:53:40;;;;;;;48.17;45.63;;;26.90;96.70;;;;;;5051034;28;20444;-55
2023/09/10 07:56:07;;;;;;;49.47;46.77;;;26.90;97.00;;;;;;5050486;28;20502;-55
2023/09/10 07:58:36;;;;;;;47.83;45.20;;;26.90;97.30;;;;;;5049817;28;20526;-57
2023/09/10 08:01:07;;;;;;;49.40;46.77;;;26.90;97.30;;;;;;5051454;28;20973;-53
2023/09/10 08:03:36;;;;;;;50.67;47.73;;;26.80;97.70;;;;;;5051080;28;20467;-54
2023/09/10 08:06:04;;;;;;;47.40;45.20;;;26.90;98.10;;;;;;5050986;28;20990;-54
2023/09/10 08:08:33;;;;;;;51.10;48.60;;;26.80;98.40;;;;;;5051422;28;20498;-53
2023/09/10 08:11:01;;;;;;;50.57;47.60;;;26.80;98.60;;;;;;5050244;28;20479;-53
2023/09/10 08:13:29;;;;;;;49.07;46.47;;;26.80;98.90;;;;;;5050981;28;20866;-50
2023/09/10 08:15:59;;;;;;;48.83;46.27;;;26.80;99.10;;;;;;5051486;28;20458;-50
2023/09/10 08:18:28;;;;;;;47.70;45.30;;;26.80;99.40;;;;;;5055242;28;20468;-51
2023/09/10 08:20:56;;;;;;;49.97;47.30;;;26.70;99.30;;;;;;5079341;22;20492;-49
2023/09/10 08:23:26;;;;;;;48.23;45.80;;;26.70;99.40;;;;;;5055218;28;20436;-48
2023/09/10 08:25:55;;;;;;;50.07;47.37;;;26.70;99.60;;;;;;5054055;28;20435;-50
2023/09/10 08:28:22;;;;;;;49.00;46.73;;;26.70;99.60;;;;;;5054588;28;20501;-49
2023/09/10 08:30:53;;;;;;;50.27;47.60;;;26.80;99.70;;;;;;5020082;28;20485;-52
2023/09/10 08:33:24;;;;;;;48.97;45.17;;;26.80;99.90;;;;;;5035257;28;20441;-50
2023/09/10 08:35:56;;;;;;;46.87;44.37;;;26.80;99.90;;;;;;5035141;28;20445;-50
2023/09/10 08:38:23;;;;;;;47.83;45.33;;;26.80;99.90;;;;;;5034697;28;21021;-49
2023/09/10 08:41:06;;;;;;;46.37;44.17;;;26.80;99.90;;;;;;5034926;28;20566;-49
2023/09/10 08:43:46;;;;;;;48.17;45.37;;;26.80;99.90;;;;;;5035037;28;20430;-54
2023/09/10 08:46:14;;;;;;;48.17;45.40;;;26.80;99.90;;;;;;5034168;28;21087;-49
2023/09/10 08:48:50;;;;;;;44.67;42.27;;;26.80;99.90;;;;;;5034736;28;20472;-52
2023/09/10 08:51:17;;;;;;;47.93;45.43;;;26.80;99.90;;;;;;5026955;28;20538;-50
2023/09/10 08:53:47;;;;;;;49.57;46.80;;;26.90;99.90;;;;;;5034433;28;20468;-49
2023/09/10 08:56:17;;;;;;;45.27;43.07;;;26.90;99.90;;;;;;5034241;28;20472;-54
2023/09/10 08:58:53;;;;;;;43.43;41.00;;;26.90;99.90;;;;;;5034220;28;20524;-51
2023/09/10 09:01:22;;;;;;;46.00;43.37;;;26.90;99.90;;;;;;5027209;28;20432;-53
2023/09/10 09:03:54;;;;;;;46.57;44.17;;;26.90;99.90;;;;;;5034232;28;20456;-51
2023/09/10 09:06:22;;;;;;;47.93;45.40;;;27.00;99.90;;;;;;5028898;28;20453;-49
2023/09/10 09:09:03;;;;;;;48.03;45.53;;;27.00;99.90;;;;;;5034238;28;20472;-52
2023/09/10 09:11:31;;;;;;;47.67;44.97;;;27.00;99.90;;;;;;5027752;28;20476;-49
2023/09/10 09:14:07;;;;;;;48.53;45.93;;;27.10;99.90;;;;;;5033879;28;20475;-50
2023/09/10 09:16:38;;;;;;;45.43;42.97;;;27.10;99.90;;;;;;5034366;28;20441;-49
2023/09/10 09:19:11;;;;;;;45.57;43.27;;;27.10;99.90;;;;;;5034234;28;20531;-49
2023/09/10 09:21:41;;;;;;;44.17;41.97;;;27.10;99.90;;;;;;5034157;28;20814;-52
2023/09/10 09:24:13;;;;;;;45.47;43.07;;;27.20;99.90;;;;;;5032970;28;20510;-49
2023/09/10 09:26:41;;;;;;;43.90;41.70;;;27.20;99.90;;;;;;5033722;28;20442;-51
2023/09/10 09:29:12;;;;;;;48.00;45.50;;;27.20;99.90;;;;;;5033875;28;20508;-52
2023/09/10 09:31:41;;;;;;;46.60;44.37;;;27.20;99.90;;;;;;5034047;28;20477;-51
2023/09/10 09:34:13;;;;;;;47.30;44.60;;;27.30;99.90;;;;;;5033812;28;20480;-52
2023/09/10 09:36:42;;;;;;;50.57;47.90;;;27.30;99.90;;;;;;5033873;28;20453;-50
2023/09/10 09:39:12;;;;;;;45.73;43.00;;;27.20;99.90;;;;;;5033942;28;20576;-49
2023/09/10 09:41:40;;;;;;;48.03;45.43;;;27.30;99.90;;;;;;5033816;28;20441;-50
2023/09/10 09:44:11;;;;;;;46.17;43.43;;;27.30;99.90;;;;;;5032296;28;20449;-52
2023/09/10 09:46:40;;;;;;;46.60;44.20;;;27.30;99.90;;;;;;5033886;28;20468;-51
2023/09/10 09:49:07;;;;;;;49.13;46.43;;;27.30;99.90;;;;;;5033688;28;20465;-53
2023/09/10 09:51:35;;;;;;;48.90;46.40;;;27.30;99.90;;;;;;5033560;28;20508;-49
2023/09/10 09:54:03;;;;;;;46.60;44.20;;;27.30;99.90;;;;;;5033378;28;20473;-50
2023/09/10 09:56:30;;;;;;;45.23;42.73;;;27.30;99.90;;;;;;5033580;28;20441;-50
2023/09/10 09:58:58;;;;;;;45.40;42.87;;;27.40;99.90;;;;;;5033485;28;20472;-52
2023/09/10 10:01:25;;;;;;;46.97;44.37;;;27.40;99.80;;;;;;5032860;28;20441;-51
2023/09/10 10:03:53;;;;;;;46.63;44.13;;;27.40;99.60;;;;;;5033395;28;20485;-50
2023/09/10 10:06:20;;;;;;;45.43;43.00;;;27.40;99.20;;;;;;5025318;28;20456;-52
2023/09/10 10:08:52;;;;;;;48.73;46.23;;;27.40;99.20;;;;;;5033372;28;20473;-51
2023/09/10 10:11:30;;;;;;;45.70;43.40;;;27.40;99.20;;;;;;5032718;28;20477;-50
2023/09/10 10:13:59;;;;;;;47.17;44.50;;;27.40;99.10;;;;;;5033127;28;20449;-50
2023/09/10 10:16:27;;;;;;;46.60;44.20;;;27.40;99.30;;;;;;5033336;28;20532;-52
2023/09/10 10:18:55;;;;;;;47.63;44.90;;;27.50;99.30;;;;;;5032857;28;20445;-53
2023/09/10 10:21:23;;;;;;;48.23;45.73;;;27.50;99.10;;;;;;5032655;28;20480;-52
2023/09/10 10:23:53;;;;;;;46.20;43.70;;;27.50;98.90;;;;;;5033039;28;20501;-53
2023/09/10 10:26:21;;;;;;;47.50;45.10;;;27.50;98.80;;;;;;5025079;28;20445;-52
2023/09/10 10:28:49;;;;;;;46.30;43.70;;;27.50;98.70;;;;;;5032991;28;20468;-51
2023/09/10 10:31:17;;;;;;;47.07;44.27;;;27.50;98.70;;;;;;5032204;28;20551;-51
2023/09/10 10:33:51;;;;;;;47.77;45.10;;;27.50;98.80;;;;;;5032609;28;20446;-55
2023/09/10 10:36:30;;;;;;;51.50;48.63;;;27.50;98.70;;;;;;5032836;28;20442;-53
2023/09/10 10:39:03;;;;;;;46.33;43.67;;;27.50;98.60;;;;;;5031860;28;20441;-53
2023/09/10 10:41:32;;;;;;;43.33;41.07;;;27.50;98.60;;;;;;5032210;28;20521;-54
2023/09/10 10:44:08;;;;;;;46.63;44.00;;;27.60;98.70;;;;;;5032412;28;20476;-50
2023/09/10 10:46:37;;;;;;;45.60;43.20;;;27.60;98.60;;;;;;5032643;28;20482;-54
2023/09/10 10:49:07;;;;;;;46.80;44.10;;;27.60;98.40;;;;;;5032255;28;20863;-55
2023/09/10 10:51:38;;;;;;;46.60;44.27;;;27.60;98.00;;;;;;5031753;28;20505;-53
2023/09/10 10:54:07;;;;;;;49.10;45.93;;;27.70;98.20;;;;;;5032377;28;20925;-51
2023/09/10 10:56:35;;;;;;;45.30;43.00;;;27.70;98.00;;;;;;5032405;28;20472;-55
2023/09/10 10:59:02;;;;;;;49.70;47.03;;;27.70;97.70;;;;;;5032169;28;20469;-54
2023/09/10 11:01:29;;;;;;;44.90;42.37;;;27.70;97.70;;;;;;5031687;28;20444;-52
2023/09/10 11:03:56;;;;;;;45.50;43.27;;;27.70;97.30;;;;;;5032234;28;20495;-53
2023/09/10 11:06:23;;;;;;;48.00;45.67;;;27.70;97.30;;;;;;5032345;28;20476;-50
2023/09/10 11:08:50;;;;;;;46.37;43.87;;;27.70;97.20;;;;;;5031695;28;20488;-53
2023/09/10 11:11:48;;;;;;;43.53;40.97;;;27.80;97.50;;;;;;5031792;28;20480;-51
2023/09/10 11:14:14;;;;;;;47.93;44.97;;;27.80;97.30;;;;;;5031873;28;20516;-53
2023/09/10 11:16:43;;;;;;;48.33;45.83;;;27.80;97.30;;;;;;5031971;28;20476;-51
2023/09/10 11:19:45;;;;;;;47.03;44.47;;;27.80;97.40;;;;;;5031070;28;20480;-52
2023/09/10 11:22:12;;;;;;;45.53;43.33;;;27.80;97.70;;;;;;5031371;28;20886;-50
2023/09/10 11:24:41;;;;;;;47.73;45.33;;;27.90;97.70;;;;;;5031770;28;20476;-50
2023/09/10 11:27:23;;;;;;;45.73;43.33;;;27.90;97.50;;;;;;5031473;28;20503;-50
2023/09/10 11:30:08;;;;;;;47.43;44.80;;;27.90;97.50;;;;;;5031549;28;20999;-53
2023/09/10 11:32:35;;;;;;;47.43;45.00;;;27.90;97.30;;;;;;5025308;28;20925;-52
2023/09/10 11:35:24;;;;;;;44.17;41.80;;;27.90;97.30;;;;;;5031552;28;20479;-49
2023/09/10 11:37:53;;;;;;;48.03;45.63;;;27.90;97.30;;;;;;5031783;28;20441;-50
2023/09/10 11:40:21;;;;;;;49.10;46.30;;;28.00;97.40;;;;;;5031083;28;20519;-48
2023/09/10 11:42:50;;;;;;;48.83;46.33;;;28.00;96.80;;;;;;5031506;28;20445;-49
2023/09/10 11:45:19;;;;;;;48.70;46.33;;;28.10;96.80;;;;;;5031398;28;20470;-50
2023/09/10 11:47:47;;;;;;;49.60;47.00;;;28.10;96.70;;;;;;5031484;28;20540;-49
2023/09/10 11:50:20;;;;;;;49.43;46.93;;;28.10;96.60;;;;;;5031165;28;20497;-52
2023/09/10 11:52:47;;;;;;;49.47;46.87;;;28.10;96.50;;;;;;5030869;28;20531;-53
2023/09/10 11:55:14;;;;;;;47.50;44.80;;;28.10;96.30;;;;;;5031088;28;20485;-55
2023/09/10 11:57:41;;;;;;;49.57;46.70;;;28.20;95.60;;;;;;5031338;28;20469;-55
2023/09/10 12:00:16;;;;;;;51.23;48.63;;;28.20;95.50;;;;;;5031326;28;20500;-51
2023/09/10 12:02:43;;;;;;;48.37;45.70;;;28.30;95.50;;;;;;5031266;28;20456;-59
2023/09/10 12:05:10;;;;;;;49.80;47.20;;;28.30;95.90;;;;;;5030936;28;20481;-62
2023/09/10 12:07:37;;;;;;;49.97;46.93;;;28.40;93.40;;;;;;5031184;28;20535;-50
2023/09/10 12:10:05;;;;;;;49.20;46.50;;;28.40;93.40;;;;;;5031242;28;20492;-56
2023/09/10 12:12:33;;;;;;;48.67;46.10;;;28.50;93.70;;;;;;5031038;28;20481;-51
2023/09/10 12:15:01;;;;;;;49.80;47.00;;;28.40;93.30;;;;;;5031051;28;20564;-51
2023/09/10 12:17:29;;;;;;;48.20;45.77;;;28.40;93.30;;;;;;5031323;28;20468;-53
2023/09/10 12:19:56;;;;;;;49.50;46.80;;;28.50;93.20;;;;;;5031187;28;20500;-51
2023/09/10 12:22:33;;;;;;;47.93;45.43;;;28.50;93.10;;;;;;5023068;28;20461;-54
2023/09/10 12:25:00;;;;;;;47.33;44.43;;;28.60;93.50;;;;;;5030870;28;20515;-52
2023/09/10 12:27:29;;;;;;;50.10;47.60;;;28.50;93.00;;;;;;5030922;28;20445;-54
2023/09/10 12:30:03;;;;;;;46.90;44.50;;;28.50;93.30;;;;;;5030824;28;20518;-55
2023/09/10 12:32:33;;;;;;;46.33;43.93;;;28.50;93.70;;;;;;5023522;28;20484;-49
2023/09/10 12:35:02;;;;;;;51.40;48.70;;;28.60;93.60;;;;;;5030782;28;20495;-50